createdAt,value
2019-05-19T00:00:36.076Z,13.99
2019-05-19T00:05:36.013Z,13.94
2019-05-19T00:10:35.955Z,13.95
2019-05-19T00:15:35.923Z,13.94
2019-05-19T00:20:35.854Z,13.92
2019-05-19T00:25:35.801Z,13.91
2019-05-19T00:30:35.771Z,13.95
2019-05-19T00:35:35.696Z,13.96
2019-05-19T00:40:35.643Z,13.94
2019-05-19T00:45:35.572Z,13.89
2019-05-19T00:50:35.531Z,13.87
2019-05-19T00:55:35.491Z,13.84
2019-05-19T01:00:35.421Z,13.84
2019-05-19T01:05:35.365Z,13.84
2019-05-19T01:10:35.330Z,13.87
2019-05-19T01:15:35.248Z,13.89
2019-05-19T01:20:35.213Z,13.92
2019-05-19T01:25:35.211Z,13.94
2019-05-19T01:30:43.362Z,13.94
2019-05-19T01:35:35.064Z,13.98
2019-05-19T01:40:35.001Z,14.01
2019-05-19T01:45:34.931Z,14.02
2019-05-19T01:50:34.951Z,13.98
2019-05-19T01:55:34.850Z,13.94
2019-05-19T02:00:34.799Z,13.89
2019-05-19T02:05:34.724Z,13.87
2019-05-19T02:10:34.729Z,13.81
2019-05-19T02:15:34.617Z,13.79
2019-05-19T02:20:34.577Z,13.76
2019-05-19T02:25:34.514Z,13.69
2019-05-19T02:30:34.461Z,13.63
2019-05-19T02:35:34.420Z,13.59
2019-05-19T02:40:34.379Z,13.56
2019-05-19T02:45:34.315Z,13.52
2019-05-19T02:50:50.861Z,13.47
2019-05-19T02:55:35.210Z,13.40
2019-05-19T03:00:34.157Z,13.30
2019-05-19T03:05:34.102Z,13.24
2019-05-19T03:10:34.047Z,13.14
2019-05-19T03:15:33.981Z,13.06
2019-05-19T03:20:33.951Z,13.06
2019-05-19T03:25:33.866Z,13.11
2019-05-19T03:30:33.818Z,13.17
2019-05-19T03:35:33.776Z,13.24
2019-05-19T03:40:33.768Z,13.24
2019-05-19T03:45:33.656Z,13.25
2019-05-19T03:50:33.605Z,13.30
2019-05-19T03:55:33.538Z,13.36
2019-05-19T04:00:33.498Z,13.37
2019-05-19T04:05:33.458Z,13.41
2019-05-19T04:10:33.384Z,13.46
2019-05-19T04:15:33.343Z,13.47
2019-05-19T04:20:33.273Z,13.54
2019-05-19T04:25:33.223Z,13.58
2019-05-19T04:30:33.172Z,13.63
2019-05-19T04:35:33.139Z,13.69
2019-05-19T04:40:33.040Z,13.74
2019-05-19T04:45:33.006Z,13.84
2019-05-19T04:50:32.960Z,13.96
2019-05-19T04:55:32.891Z,14.12
2019-05-19T05:00:32.850Z,14.28
2019-05-19T05:05:32.786Z,14.46
2019-05-19T05:10:32.729Z,14.80
2019-05-19T05:15:32.679Z,14.87
2019-05-19T05:20:32.628Z,14.91
2019-05-19T05:25:32.569Z,14.99
2019-05-19T05:30:32.538Z,15.20
2019-05-19T05:35:32.477Z,15.48
2019-05-19T05:40:32.422Z,15.70
2019-05-19T05:45:32.369Z,16.38
2019-05-19T05:50:32.327Z,16.95
2019-05-19T05:55:32.318Z,17.35
2019-05-19T06:00:32.228Z,17.14
2019-05-19T06:05:32.177Z,16.68
2019-05-19T06:10:32.098Z,16.50
2019-05-19T06:15:32.093Z,16.49
2019-05-19T06:20:32.020Z,16.44
2019-05-19T06:25:32.316Z,16.56
2019-05-19T06:30:31.878Z,16.80
2019-05-19T06:35:31.900Z,17.00
2019-05-19T06:40:31.826Z,17.22
2019-05-19T06:45:31.755Z,17.35
2019-05-19T06:50:31.681Z,17.94
2019-05-19T06:55:31.672Z,18.50
2019-05-19T07:00:31.611Z,19.43
2019-05-19T07:05:31.603Z,20.13
2019-05-19T07:10:31.481Z,21.14
2019-05-19T07:15:31.473Z,21.78
2019-05-19T07:20:31.458Z,22.19
2019-05-19T07:25:31.355Z,22.62
2019-05-19T07:30:31.295Z,22.93
2019-05-19T07:35:31.254Z,23.35
2019-05-19T07:40:31.184Z,23.02
2019-05-19T07:45:31.181Z,22.29
2019-05-19T07:50:31.114Z,21.46
2019-05-19T07:55:31.110Z,22.31
2019-05-19T08:00:31.089Z,23.27
2019-05-19T08:05:31.025Z,23.58
2019-05-19T08:10:30.946Z,23.77
2019-05-19T08:15:30.882Z,24.13
2019-05-19T08:20:31.868Z,24.41
2019-05-19T08:25:30.833Z,24.61
2019-05-19T08:30:30.727Z,24.44
2019-05-19T08:35:30.797Z,25.38
2019-05-19T08:40:30.685Z,25.59
2019-05-19T08:45:30.617Z,23.04
2019-05-19T08:50:30.927Z,23.47
2019-05-19T08:55:30.592Z,23.85
2019-05-19T09:00:33.557Z,23.15
2019-05-19T09:05:30.468Z,23.52
2019-05-19T09:10:30.388Z,25.05
2019-05-19T09:15:30.315Z,25.34
2019-05-19T09:20:30.331Z,24.75
2019-05-19T09:25:30.238Z,23.98
2019-05-19T09:30:30.232Z,24.22
2019-05-19T09:35:30.205Z,24.57
2019-05-19T09:40:30.107Z,23.23
2019-05-19T09:45:30.076Z,25.10
2019-05-19T09:50:30.015Z,25.79
2019-05-19T09:55:29.971Z,24.77
2019-05-19T10:00:29.944Z,25.05
2019-05-19T10:05:29.875Z,25.89
2019-05-19T10:10:29.846Z,25.47
2019-05-19T10:15:29.787Z,25.16
2019-05-19T10:20:29.744Z,24.08
2019-05-19T10:25:29.707Z,22.84
2019-05-19T10:30:29.628Z,23.86
2019-05-19T10:35:29.630Z,25.30
2019-05-19T10:40:29.574Z,25.90
2019-05-19T10:45:29.540Z,26.69
2019-05-19T10:50:29.471Z,25.65
2019-05-19T10:55:36.576Z,26.09
2019-05-19T11:00:30.399Z,25.77
2019-05-19T11:05:29.389Z,25.06
2019-05-19T11:10:29.358Z,25.34
2019-05-19T11:15:29.274Z,27.19
2019-05-19T11:20:29.275Z,27.11
2019-05-19T11:25:34.132Z,26.39
2019-05-19T11:30:30.177Z,28.17
2019-05-19T11:35:29.106Z,27.48
2019-05-19T11:40:29.056Z,27.64
2019-05-19T11:45:29.441Z,28.60
2019-05-19T11:50:28.980Z,27.09
2019-05-19T11:55:28.954Z,28.01
2019-05-19T12:00:28.893Z,26.68
2019-05-19T12:05:28.924Z,29.10
2019-05-19T12:10:28.883Z,28.50
2019-05-19T12:15:28.832Z,28.62
2019-05-19T12:20:28.823Z,28.97
2019-05-19T12:25:28.750Z,27.96
2019-05-19T12:30:28.824Z,26.54
2019-05-19T12:35:29.745Z,25.59
2019-05-19T12:40:28.613Z,27.09
2019-05-19T12:45:28.599Z,28.80
2019-05-19T12:50:28.625Z,29.59
2019-05-19T12:55:28.783Z,29.74
2019-05-19T13:00:28.487Z,26.99
2019-05-19T13:05:28.431Z,24.49
2019-05-19T13:10:28.419Z,24.94
2019-05-19T13:15:28.328Z,25.37
2019-05-19T13:20:28.253Z,25.50
2019-05-19T13:25:28.210Z,25.15
2019-05-19T13:30:28.193Z,24.71
2019-05-19T13:35:28.132Z,24.49
2019-05-19T13:40:28.081Z,24.83
2019-05-19T13:45:28.143Z,25.59
2019-05-19T13:50:28.033Z,25.84
2019-05-19T13:55:28.021Z,25.52
2019-05-19T14:00:27.899Z,24.97
2019-05-19T14:05:27.832Z,24.01
2019-05-19T14:10:27.924Z,23.80
2019-05-19T14:15:27.725Z,24.88
2019-05-19T14:20:27.663Z,24.88
2019-05-19T14:25:27.597Z,24.17
2019-05-19T14:30:27.676Z,22.68
2019-05-19T14:35:27.609Z,22.49
2019-05-19T14:40:27.570Z,22.82
2019-05-19T14:45:27.683Z,22.68
2019-05-19T14:50:27.549Z,22.46
2019-05-19T14:55:27.512Z,22.20
2019-05-19T15:00:31.226Z,21.23
2019-05-19T15:05:27.614Z,20.08
2019-05-19T15:10:27.385Z,19.68
2019-05-19T15:15:27.341Z,19.35
2019-05-19T15:20:27.502Z,19.13
2019-05-19T15:25:27.251Z,19.05
2019-05-19T15:30:27.209Z,18.91
2019-05-19T15:35:27.206Z,19.05
2019-05-19T15:40:27.145Z,19.21
2019-05-19T15:45:27.630Z,19.35
2019-05-19T15:50:27.050Z,18.99
2019-05-19T15:55:27.002Z,18.86
2019-05-19T16:00:27.149Z,18.50
2019-05-19T16:05:26.942Z,18.31
2019-05-19T16:10:26.871Z,18.58
2019-05-19T16:15:26.775Z,18.83
2019-05-19T16:20:26.694Z,18.87
2019-05-19T16:25:26.656Z,18.07
2019-05-19T16:30:26.608Z,17.91
2019-05-19T16:35:26.599Z,17.84
2019-05-19T16:40:26.479Z,17.81
2019-05-19T16:45:26.562Z,17.76
2019-05-19T16:50:26.638Z,17.70
2019-05-19T16:55:26.807Z,17.62
2019-05-19T17:00:26.803Z,17.54
2019-05-19T17:05:26.744Z,17.53
2019-05-19T17:10:26.810Z,17.48
2019-05-19T17:15:26.676Z,17.38
2019-05-19T17:20:27.700Z,17.25
2019-05-19T17:25:26.549Z,17.10
2019-05-19T17:30:26.502Z,17.04
2019-05-19T17:35:26.563Z,16.95
2019-05-19T17:40:26.455Z,16.88
2019-05-19T17:45:26.360Z,16.78
2019-05-19T17:50:26.348Z,16.58
2019-05-19T17:55:26.258Z,16.38
2019-05-19T18:00:26.208Z,16.33
2019-05-19T18:05:26.269Z,16.23
2019-05-19T18:10:26.097Z,16.18
2019-05-19T18:15:26.025Z,16.09
2019-05-19T18:20:27.399Z,16.00
2019-05-19T18:25:26.167Z,15.88
2019-05-19T18:30:26.004Z,15.76
2019-05-19T18:35:36.000Z,15.60
2019-05-19T18:40:26.359Z,15.41
2019-05-19T18:45:25.751Z,15.15
2019-05-19T18:50:25.774Z,14.95
2019-05-19T18:55:25.639Z,14.81
2019-05-19T19:00:25.619Z,14.72
2019-05-19T19:05:25.550Z,14.65
2019-05-19T19:10:26.519Z,14.60
2019-05-19T19:15:25.454Z,14.53
2019-05-19T19:20:25.456Z,14.46
2019-05-19T19:25:25.411Z,14.39
2019-05-19T19:30:26.643Z,14.37
2019-05-19T19:35:25.362Z,14.34
2019-05-19T19:40:25.236Z,14.34
2019-05-19T19:45:25.125Z,14.29
2019-05-19T19:50:25.111Z,14.19
2019-05-19T19:55:25.046Z,14.24
2019-05-19T20:00:24.978Z,14.25
2019-05-19T20:05:24.915Z,14.19
2019-05-19T20:10:24.841Z,14.19
2019-05-19T20:15:24.824Z,14.16
2019-05-19T20:20:24.770Z,14.12
2019-05-19T20:25:24.703Z,14.06
2019-05-19T20:30:35.863Z,14.02
2019-05-19T20:35:25.609Z,14.01
2019-05-19T20:40:32.199Z,14.01
2019-05-19T20:45:26.547Z,13.99
2019-05-19T20:50:24.409Z,14.04
2019-05-19T20:55:24.392Z,14.02
2019-05-19T21:00:24.309Z,14.02
2019-05-19T21:05:24.263Z,14.09
2019-05-19T21:10:24.212Z,14.12
2019-05-19T21:15:24.202Z,14.19
2019-05-19T21:20:24.140Z,14.27
2019-05-19T21:25:24.134Z,14.31
2019-05-19T21:30:24.009Z,14.37
2019-05-19T21:35:23.985Z,14.39
2019-05-19T21:40:23.910Z,14.39
2019-05-19T21:45:23.866Z,14.38
2019-05-19T21:50:23.799Z,14.38
2019-05-19T21:55:23.732Z,14.42
2019-05-19T22:00:23.732Z,14.38
2019-05-19T22:05:23.619Z,14.34
2019-05-19T22:10:23.587Z,14.31
2019-05-19T22:15:23.536Z,14.34
2019-05-19T22:20:23.494Z,14.32
2019-05-19T22:25:23.422Z,14.31
2019-05-19T22:30:23.444Z,14.24
2019-05-19T22:35:23.385Z,14.13
2019-05-19T22:40:23.366Z,14.09
2019-05-19T22:45:23.230Z,13.95
2019-05-19T22:50:23.149Z,13.80
2019-05-19T22:55:23.155Z,13.67
2019-05-19T23:00:32.095Z,13.54
2019-05-19T23:05:23.003Z,13.41
2019-05-19T23:10:22.953Z,13.33
2019-05-19T23:15:25.422Z,13.24
2019-05-19T23:20:22.878Z,13.17
2019-05-19T23:25:22.870Z,13.09
2019-05-19T23:30:22.866Z,13.03
2019-05-19T23:35:22.713Z,13.00
2019-05-19T23:40:22.724Z,12.88
2019-05-19T23:45:22.590Z,12.78
2019-05-19T23:50:22.553Z,12.81
2019-05-19T23:55:22.522Z,12.77
